sensor_id;sensor_type;location;lat;lon;timestamp;pressure;altitude;pressure_sealevel;temperature;humidity
57799;BME280;43626;53.866;30.298;2023-03-31T00:00:58;1017.6;;;-0.5;61.9
57799;BME280;43626;53.866;30.298;2023-03-31T00:06:24;1017.6;;;-0.5;62
57799;BME280;43626;53.866;30.298;2023-03-31T00:11:38;1017.6;;;-0.5;61.8
57799;BME280;43626;53.866;30.298;2023-03-31T00:16:14;1017.5;;;-0.5;61.7
57799;BME280;43626;53.866;30.298;2023-03-31T00:21:38;1017.4;;;-0.5;61.8
57799;BME280;43626;53.866;30.298;2023-03-31T00:26:08;1017.2;;;-0.6;61.7
57799;BME280;43626;53.866;30.298;2023-03-31T00:31:22;1017.1;;;-0.6;61.8
57799;BME280;43626;53.866;30.298;2023-03-31T00:35:58;1017.1;;;-0.7;62.1
57799;BME280;43626;53.866;30.298;2023-03-31T00:41:04;1017;;;-0.7;61.8
57799;BME280;43626;53.866;30.298;2023-03-31T00:46:39;1017;;;-0.7;61.9
57799;BME280;43626;53.866;30.298;2023-03-31T00:51:12;1017;;;-0.8;62
57799;BME280;43626;53.866;30.298;2023-03-31T00:56:22;1016.9;;;-0.8;62
57799;BME280;43626;53.866;30.298;2023-03-31T01:01:08;1016.9;;;-0.8;61.9
57799;BME280;43626;53.866;30.298;2023-03-31T01:05:58;1016.9;;;-0.8;62
57799;BME280;43626;53.866;30.298;2023-03-31T01:11:38;1016.8;;;-0.8;61.9
57799;BME280;43626;53.866;30.298;2023-03-31T01:16:30;1016.7;;;-0.8;61.8
57799;BME280;43626;53.866;30.298;2023-03-31T01:22:33;1016.6;;;-0.8;61.9
57799;BME280;43626;53.866;30.298;2023-03-31T01:26:14;1016.6;;;-0.8;61.7
57799;BME280;43626;53.866;30.298;2023-03-31T01:31:20;1016.6;;;-0.8;61.8
57799;BME280;43626;53.866;30.298;2023-03-31T01:36:43;1016.6;;;-0.9;61.9
57799;BME280;43626;53.866;30.298;2023-03-31T01:41:01;1016.6;;;-0.9;61.9
57799;BME280;43626;53.866;30.298;2023-03-31T01:46:39;1016.5;;;-0.9;61.7
57799;BME280;43626;53.866;30.298;2023-03-31T01:51:09;1016.6;;;-1;61.8
57799;BME280;43626;53.866;30.298;2023-03-31T01:56:15;1016.6;;;-1;61.7
57799;BME280;43626;53.866;30.298;2023-03-31T02:01:38;1016.5;;;-1;61.7
57799;BME280;43626;53.866;30.298;2023-03-31T02:06:13;1016.4;;;-1;61.6
57799;BME280;43626;53.866;30.298;2023-03-31T02:11:40;1016.4;;;-1;61.7
57799;BME280;43626;53.866;30.298;2023-03-31T02:15:58;1016.4;;;-1;61.6
57799;BME280;43626;53.866;30.298;2023-03-31T02:21:06;1016.2;;;-1;61.4
57799;BME280;43626;53.866;30.298;2023-03-31T02:26:40;1016.2;;;-1;61.4
57799;BME280;43626;53.866;30.298;2023-03-31T02:31:12;1016.1;;;-1.1;61.4
57799;BME280;43626;53.866;30.298;2023-03-31T02:36:24;1016.1;;;-1.1;61.5
57799;BME280;43626;53.866;30.298;2023-03-31T02:40:58;1016;;;-1.2;61.2
57799;BME280;43626;53.866;30.298;2023-03-31T02:45:58;1016;;;-1.2;61.2
57799;BME280;43626;53.866;30.298;2023-03-31T02:52:10;1016.1;;;-1.3;61.3
57799;BME280;43626;53.866;30.298;2023-03-31T02:56:10;1016;;;-1.2;61.5
57799;BME280;43626;53.866;30.298;2023-03-31T03:01:32;1015.9;;;-1.2;61.4
57799;BME280;43626;53.866;30.298;2023-03-31T03:06:25;1015.9;;;-1.2;61.3
57799;BME280;43626;53.866;30.298;2023-03-31T03:11:11;1015.9;;;-1.2;61.3
57799;BME280;43626;53.866;30.298;2023-03-31T03:16:24;1015.9;;;-1.2;61.4
57799;BME280;43626;53.866;30.298;2023-03-31T03:21:08;1015.8;;;-1.2;61.4
57799;BME280;43626;53.866;30.298;2023-03-31T03:26:22;1015.8;;;-1.2;61.8
57799;BME280;43626;53.866;30.298;2023-03-31T03:30:58;1015.7;;;-1.2;61.4
57799;BME280;43626;53.866;30.298;2023-03-31T03:36:16;1015.7;;;-1.2;60.8
57799;BME280;43626;53.866;30.298;2023-03-31T03:41:38;1015.7;;;-1.2;61.1
57799;BME280;43626;53.866;30.298;2023-03-31T03:45:58;1015.7;;;-1.2;61.4
57799;BME280;43626;53.866;30.298;2023-03-31T03:51:38;1015.6;;;-1.1;61.5
57799;BME280;43626;53.866;30.298;2023-03-31T03:55:58;1015.6;;;-1;61.4
57799;BME280;43626;53.866;30.298;2023-03-31T04:01:16;1015.5;;;-0.9;61.2
57799;BME280;43626;53.866;30.298;2023-03-31T04:06:38;1015.5;;;-0.8;61.4
57799;BME280;43626;53.866;30.298;2023-03-31T04:11:12;1015.4;;;-0.6;61.5
57799;BME280;43626;53.866;30.298;2023-03-31T04:16:22;1015.4;;;-0.5;61.5
57799;BME280;43626;53.866;30.298;2023-03-31T04:21:22;1015.3;;;-0.4;61.4
57799;BME280;43626;53.866;30.298;2023-03-31T04:26:15;1015.2;;;-0.2;61
57799;BME280;43626;53.866;30.298;2023-03-31T04:31:38;1015.2;;;-0.1;60.7
57799;BME280;43626;53.866;30.298;2023-03-31T04:35:58;1015.1;;;0.1;60.3
57799;BME280;43626;53.866;30.298;2023-03-31T04:41:22;1015.1;;;0.3;60.2
57799;BME280;43626;53.866;30.298;2023-03-31T04:45:58;1015.1;;;0.6;59.7
57799;BME280;43626;53.866;30.298;2023-03-31T04:51:14;1015;;;0.8;59.6
57799;BME280;43626;53.866;30.298;2023-03-31T04:56:38;1014.9;;;1;59.4
57799;BME280;43626;53.866;30.298;2023-03-31T05:00:58;1014.9;;;1.1;59.3
57799;BME280;43626;53.866;30.298;2023-03-31T05:06:22;1014.7;;;1.3;59.1
57799;BME280;43626;53.866;30.298;2023-03-31T05:11:08;1014.7;;;1.4;58.9
57799;BME280;43626;53.866;30.298;2023-03-31T05:16:14;1014.6;;;1.5;58.3
57799;BME280;43626;53.866;30.298;2023-03-31T05:21:40;1014.6;;;1.5;57.8
57799;BME280;43626;53.866;30.298;2023-03-31T05:26:12;1014.6;;;1.6;57.6
57799;BME280;43626;53.866;30.298;2023-03-31T05:31:22;1014.6;;;1.8;57.2
57799;BME280;43626;53.866;30.298;2023-03-31T05:36:09;1014.6;;;1.8;56.8
57799;BME280;43626;53.866;30.298;2023-03-31T05:41:14;1014.5;;;1.9;56.6
57799;BME280;43626;53.866;30.298;2023-03-31T05:46:38;1014.5;;;2;56.7
57799;BME280;43626;53.866;30.298;2023-03-31T05:50:58;1014.5;;;2.1;56.7
57799;BME280;43626;53.866;30.298;2023-03-31T05:55:58;1014.5;;;2.3;56.6
57799;BME280;43626;53.866;30.298;2023-03-31T06:01:09;1014.5;;;2.5;56.3
57799;BME280;43626;53.866;30.298;2023-03-31T06:05:58;1014.5;;;2.6;56
57799;BME280;43626;53.866;30.298;2023-03-31T06:11:38;1014.5;;;2.7;55.7
57799;BME280;43626;53.866;30.298;2023-03-31T06:16:09;1014.5;;;2.8;55
57799;BME280;43626;53.866;30.298;2023-03-31T06:21:22;1014.5;;;2.9;54.5
57799;BME280;43626;53.866;30.298;2023-03-31T06:26:22;1014.5;;;3;54.5
57799;BME280;43626;53.866;30.298;2023-03-31T06:31:04;1014.5;;;3.2;54.1
57799;BME280;43626;53.866;30.298;2023-03-31T06:36:40;1014.4;;;3.3;53.7
57799;BME280;43626;53.866;30.298;2023-03-31T06:40:58;1014.3;;;3.3;54
57799;BME280;43626;53.866;30.298;2023-03-31T06:46:20;1014.3;;;3.3;54
57799;BME280;43626;53.866;30.298;2023-03-31T06:51:28;1014.3;;;3.4;54
57799;BME280;43626;53.866;30.298;2023-03-31T06:56:14;1014.2;;;3.5;53.8
57799;BME280;43626;53.866;30.298;2023-03-31T07:01:36;1014.2;;;3.7;53.7
57799;BME280;43626;53.866;30.298;2023-03-31T07:05:58;1014.1;;;4;53.3
57799;BME280;43626;53.866;30.298;2023-03-31T07:11:24;1014;;;4.1;52
57799;BME280;43626;53.866;30.298;2023-03-31T07:16:08;1013.9;;;4.3;51
57799;BME280;43626;53.866;30.298;2023-03-31T07:21:28;1013.9;;;4.4;49.8
57799;BME280;43626;53.866;30.298;2023-03-31T07:26:38;1013.8;;;4.6;49.3
57799;BME280;43626;53.866;30.298;2023-03-31T07:31:12;1013.8;;;4.7;48.8
57799;BME280;43626;53.866;30.298;2023-03-31T07:36:24;1013.7;;;4.8;48.9
57799;BME280;43626;53.866;30.298;2023-03-31T07:40:58;1013.7;;;5.1;49.1
57799;BME280;43626;53.866;30.298;2023-03-31T07:46:17;1013.6;;;5.3;48.5
57799;BME280;43626;53.866;30.298;2023-03-31T07:51:40;1013.5;;;5.4;48.4
57799;BME280;43626;53.866;30.298;2023-03-31T07:55:58;1013.5;;;5.6;48.5
57799;BME280;43626;53.866;30.298;2023-03-31T08:01:12;1013.5;;;5.7;48.4
57799;BME280;43626;53.866;30.298;2023-03-31T08:06:08;1013.5;;;5.8;47.5
57799;BME280;43626;53.866;30.298;2023-03-31T08:11:16;1013.5;;;5.8;46.7
57799;BME280;43626;53.866;30.298;2023-03-31T08:16:40;1013.5;;;5.8;46.6
57799;BME280;43626;53.866;30.298;2023-03-31T08:21:08;1013.4;;;5.8;46.6
57799;BME280;43626;53.866;30.298;2023-03-31T08:26:24;1013.3;;;5.9;46.6
57799;BME280;43626;53.866;30.298;2023-03-31T08:31:08;1013.2;;;6;46.5
57799;BME280;43626;53.866;30.298;2023-03-31T08:36:16;1013.2;;;6.1;46
57799;BME280;43626;53.866;30.298;2023-03-31T08:41:41;1013.1;;;6.2;46.6
57799;BME280;43626;53.866;30.298;2023-03-31T08:46:08;1013;;;6.3;46.5
57799;BME280;43626;53.866;30.298;2023-03-31T08:51:23;1013;;;6.3;46.1
57799;BME280;43626;53.866;30.298;2023-03-31T08:56:32;1012.9;;;6.4;46.2
57799;BME280;43626;53.866;30.298;2023-03-31T09:01:18;1012.9;;;6.5;45.9
57799;BME280;43626;53.866;30.298;2023-03-31T09:06:38;1012.8;;;6.5;45.1
57799;BME280;43626;53.866;30.298;2023-03-31T09:10:59;1012.8;;;6.6;44.9
57799;BME280;43626;53.866;30.298;2023-03-31T09:16:25;1012.7;;;6.6;44.2
57799;BME280;43626;53.866;30.298;2023-03-31T09:21:00;1012.6;;;6.7;44.1
57799;BME280;43626;53.866;30.298;2023-03-31T09:25:58;1012.6;;;6.7;44.5
57799;BME280;43626;53.866;30.298;2023-03-31T09:31:32;1012.5;;;6.9;44.9
57799;BME280;43626;53.866;30.298;2023-03-31T09:36:30;1012.4;;;6.9;45.1
57799;BME280;43626;53.866;30.298;2023-03-31T09:41:24;1012.4;;;7;45.2
57799;BME280;43626;53.866;30.298;2023-03-31T09:45:58;1012.4;;;7.1;45.2
57799;BME280;43626;53.866;30.298;2023-03-31T09:51:22;1012.3;;;7.2;45.1
57799;BME280;43626;53.866;30.298;2023-03-31T09:56:44;1012.2;;;7.3;45
57799;BME280;43626;53.866;30.298;2023-03-31T10:01:09;1012.1;;;7.3;44.7
57799;BME280;43626;53.866;30.298;2023-03-31T10:06:22;1012.1;;;7.4;43.2
57799;BME280;43626;53.866;30.298;2023-03-31T10:11:32;1012;;;7.4;42.3
57799;BME280;43626;53.866;30.298;2023-03-31T10:16:11;1012;;;7.5;42.1
57799;BME280;43626;53.866;30.298;2023-03-31T10:21:42;1012;;;7.5;42.4
57799;BME280;43626;53.866;30.298;2023-03-31T10:26:17;1011.9;;;7.6;42
57799;BME280;43626;53.866;30.298;2023-03-31T10:31:24;1011.8;;;7.7;42.3
57799;BME280;43626;53.866;30.298;2023-03-31T10:36:11;1011.7;;;7.8;42.8
57799;BME280;43626;53.866;30.298;2023-03-31T10:40:58;1011.7;;;7.8;42.8
57799;BME280;43626;53.866;30.298;2023-03-31T10:46:39;1011.6;;;7.9;42.9
57799;BME280;43626;53.866;30.298;2023-03-31T10:51:15;1011.6;;;8;42.8
57799;BME280;43626;53.866;30.298;2023-03-31T10:56:10;1011.5;;;8;43
57799;BME280;43626;53.866;30.298;2023-03-31T11:01:01;1011.5;;;8.1;42.4
57799;BME280;43626;53.866;30.298;2023-03-31T11:06:04;1011.4;;;8.1;42.4
57799;BME280;43626;53.866;30.298;2023-03-31T11:11:42;1011.3;;;8.1;42
57799;BME280;43626;53.866;30.298;2023-03-31T11:16:00;1011.3;;;8;42
57799;BME280;43626;53.866;30.298;2023-03-31T11:21:09;1011.3;;;8;41.5
57799;BME280;43626;53.866;30.298;2023-03-31T11:25:59;1011.2;;;8;41.8
57799;BME280;43626;53.866;30.298;2023-03-31T11:31:02;1011.1;;;8;42
57799;BME280;43626;53.866;30.298;2023-03-31T11:36:40;1011.1;;;8.1;42.1
57799;BME280;43626;53.866;30.298;2023-03-31T11:41:30;1011;;;8.2;41.9
57799;BME280;43626;53.866;30.298;2023-03-31T11:46:25;1010.9;;;8.1;41.9
57799;BME280;43626;53.866;30.298;2023-03-31T11:51:10;1010.8;;;8.1;41.9
57799;BME280;43626;53.866;30.298;2023-03-31T11:55:58;1010.8;;;8.1;41.6
57799;BME280;43626;53.866;30.298;2023-03-31T12:01:36;1010.7;;;8;41.9
57799;BME280;43626;53.866;30.298;2023-03-31T12:06:09;1010.6;;;8;41.4
57799;BME280;43626;53.866;30.298;2023-03-31T12:11:25;1010.5;;;7.9;41.6
57799;BME280;43626;53.866;30.298;2023-03-31T12:16:00;1010.4;;;7.9;41.8
57799;BME280;43626;53.866;30.298;2023-03-31T12:21:16;1010.4;;;7.8;42.2
57799;BME280;43626;53.866;30.298;2023-03-31T12:26:42;1010.3;;;7.8;42.6
57799;BME280;43626;53.866;30.298;2023-03-31T12:31:17;1010.2;;;7.8;42.8
57799;BME280;43626;53.866;30.298;2023-03-31T12:36:28;1010.2;;;7.8;42.5
57799;BME280;43626;53.866;30.298;2023-03-31T12:41:13;1010.1;;;7.8;42.2
57799;BME280;43626;53.866;30.298;2023-03-31T12:46:20;1010.1;;;7.8;42.1
57799;BME280;43626;53.866;30.298;2023-03-31T12:51:45;1010;;;7.7;41.9
57799;BME280;43626;53.866;30.298;2023-03-31T12:56:47;1009.9;;;7.7;42
57799;BME280;43626;53.866;30.298;2023-03-31T13:01:47;1009.8;;;7.7;41.7
57799;BME280;43626;53.866;30.298;2023-03-31T13:06:56;1009.8;;;7.7;41.5
57799;BME280;43626;53.866;30.298;2023-03-31T13:10:58;1009.7;;;7.7;41.3
57799;BME280;43626;53.866;30.298;2023-03-31T13:16:38;1009.7;;;7.7;41.3
57799;BME280;43626;53.866;30.298;2023-03-31T13:20:58;1009.6;;;7.7;41.5
57799;BME280;43626;53.866;30.298;2023-03-31T13:26:38;1009.6;;;7.7;41.7
57799;BME280;43626;53.866;30.298;2023-03-31T13:30:59;1009.6;;;7.6;41.7
57799;BME280;43626;53.866;30.298;2023-03-31T13:36:42;1009.5;;;7.6;42
57799;BME280;43626;53.866;30.298;2023-03-31T13:41:04;1009.5;;;7.6;42
57799;BME280;43626;53.866;30.298;2023-03-31T13:46:44;1009.5;;;7.5;42.1
57799;BME280;43626;53.866;30.298;2023-03-31T13:51:28;1009.4;;;7.4;42.1
57799;BME280;43626;53.866;30.298;2023-03-31T13:56:12;1009.4;;;7.4;42.4
57799;BME280;43626;53.866;30.298;2023-03-31T14:01:03;1009.4;;;7.4;42.4
57799;BME280;43626;53.866;30.298;2023-03-31T14:06:31;1009.4;;;7.3;43.1
57799;BME280;43626;53.866;30.298;2023-03-31T14:11:38;1009.4;;;7.4;43.6
57799;BME280;43626;53.866;30.298;2023-03-31T14:16:31;1009.3;;;7.4;43.9
57799;BME280;43626;53.866;30.298;2023-03-31T14:21:08;1009.2;;;7.4;43.7
57799;BME280;43626;53.866;30.298;2023-03-31T14:26:36;1009.2;;;7.4;44.1
57799;BME280;43626;53.866;30.298;2023-03-31T14:31:14;1009.2;;;7.4;44.2
57799;BME280;43626;53.866;30.298;2023-03-31T14:36:42;1009.2;;;7.4;44.4
57799;BME280;43626;53.866;30.298;2023-03-31T14:41:30;1009.2;;;7.3;44.6
57799;BME280;43626;53.866;30.298;2023-03-31T14:45:58;1009.2;;;7.3;44.9
57799;BME280;43626;53.866;30.298;2023-03-31T14:51:30;1009.2;;;7.2;44.9
57799;BME280;43626;53.866;30.298;2023-03-31T14:56:21;1009.1;;;7.2;44.8
57799;BME280;43626;53.866;30.298;2023-03-31T15:01:38;1009.1;;;7.1;45.1
57799;BME280;43626;53.866;30.298;2023-03-31T15:06:30;1009.1;;;7;45.5
57799;BME280;43626;53.866;30.298;2023-03-31T15:11:08;1009;;;7;45.5
57799;BME280;43626;53.866;30.298;2023-03-31T15:16:32;1009;;;7;45.8
57799;BME280;43626;53.866;30.298;2023-03-31T15:21:23;1008.9;;;7;45.8
57799;BME280;43626;53.866;30.298;2023-03-31T15:26:41;1009;;;6.8;46
57799;BME280;43626;53.866;30.298;2023-03-31T15:31:32;1008.9;;;6.7;46.2
57799;BME280;43626;53.866;30.298;2023-03-31T15:35:58;1008.9;;;6.6;46.6
57799;BME280;43626;53.866;30.298;2023-03-31T15:41:28;1009;;;6.5;47.4
57799;BME280;43626;53.866;30.298;2023-03-31T15:46:10;1009;;;6.3;49.4
57799;BME280;43626;53.866;30.298;2023-03-31T15:51:40;1009;;;6.1;51.9
57799;BME280;43626;53.866;30.298;2023-03-31T15:56:31;1009.1;;;5.9;54.1
57799;BME280;43626;53.866;30.298;2023-03-31T16:01:00;1009.1;;;5.8;55.5
57799;BME280;43626;53.866;30.298;2023-03-31T16:06:32;1009;;;5.6;56.2
57799;BME280;43626;53.866;30.298;2023-03-31T16:11:23;1009;;;5.5;55.8
57799;BME280;43626;53.866;30.298;2023-03-31T16:16:38;1009;;;5.4;55.9
57799;BME280;43626;53.866;30.298;2023-03-31T16:21:32;1009;;;5.4;56.4
57799;BME280;43626;53.866;30.298;2023-03-31T16:26:08;1008.9;;;5.3;57.1
57799;BME280;43626;53.866;30.298;2023-03-31T16:31:32;1008.9;;;5.3;57.5
57799;BME280;43626;53.866;30.298;2023-03-31T16:36:22;1008.9;;;5.2;59.1
57799;BME280;43626;53.866;30.298;2023-03-31T16:41:38;1008.9;;;5.2;60.5
57799;BME280;43626;53.866;30.298;2023-03-31T16:46:30;1008.9;;;5.3;61.4
57799;BME280;43626;53.866;30.298;2023-03-31T16:50:58;1008.9;;;5.3;61.6
57799;BME280;43626;53.866;30.298;2023-03-31T16:56:28;1008.9;;;5.3;62
57799;BME280;43626;53.866;30.298;2023-03-31T17:01:22;1008.9;;;5.2;62.3
57799;BME280;43626;53.866;30.298;2023-03-31T17:06:36;1008.9;;;5.2;62.1
57799;BME280;43626;53.866;30.298;2023-03-31T17:11:38;1008.9;;;5.1;62.1
57799;BME280;43626;53.866;30.298;2023-03-31T17:15:58;1008.9;;;5;62.2
57799;BME280;43626;53.866;30.298;2023-03-31T17:21:28;1008.9;;;5;62.4
57799;BME280;43626;53.866;30.298;2023-03-31T17:26:22;1008.9;;;5;62.5
57799;BME280;43626;53.866;30.298;2023-03-31T17:31:40;1008.8;;;5;63
57799;BME280;43626;53.866;30.298;2023-03-31T17:36:16;1008.8;;;4.9;64.2
57799;BME280;43626;53.866;30.298;2023-03-31T17:41:01;1008.8;;;5;64.7
57799;BME280;43626;53.866;30.298;2023-03-31T17:46:30;1008.8;;;5;64.9
57799;BME280;43626;53.866;30.298;2023-03-31T17:51:22;1008.8;;;5;65
57799;BME280;43626;53.866;30.298;2023-03-31T17:56:38;1008.9;;;5;65
57799;BME280;43626;53.866;30.298;2023-03-31T18:01:22;1008.9;;;5.1;64.8
57799;BME280;43626;53.866;30.298;2023-03-31T18:06:09;1008.9;;;5.1;64.7
57799;BME280;43626;53.866;30.298;2023-03-31T18:11:32;1008.9;;;5.1;64.6
57799;BME280;43626;53.866;30.298;2023-03-31T18:16:22;1008.8;;;5.1;64.5
57799;BME280;43626;53.866;30.298;2023-03-31T18:21:38;1008.8;;;5.2;64.4
57799;BME280;43626;53.866;30.298;2023-03-31T18:26:23;1008.8;;;5.1;64.4
57799;BME280;43626;53.866;30.298;2023-03-31T18:31:09;1008.8;;;5.1;64.8
57799;BME280;43626;53.866;30.298;2023-03-31T18:36:28;1008.8;;;5;64.9
57799;BME280;43626;53.866;30.298;2023-03-31T18:40:58;1008.7;;;5;65.2
57799;BME280;43626;53.866;30.298;2023-03-31T18:46:38;1008.7;;;5;65.3
57799;BME280;43626;53.866;30.298;2023-03-31T18:51:09;1008.6;;;5;65.5
57799;BME280;43626;53.866;30.298;2023-03-31T18:56:08;1008.6;;;5;65.4
57799;BME280;43626;53.866;30.298;2023-03-31T19:01:30;1008.5;;;5.1;65.1
57799;BME280;43626;53.866;30.298;2023-03-31T19:06:28;1008.4;;;5;64.9
57799;BME280;43626;53.866;30.298;2023-03-31T19:11:38;1008.4;;;4.9;64.9
57799;BME280;43626;53.866;30.298;2023-03-31T19:15:58;1008.4;;;4.9;65.2
57799;BME280;43626;53.866;30.298;2023-03-31T19:21:08;1008.4;;;4.9;65.2
57799;BME280;43626;53.866;30.298;2023-03-31T19:26:30;1008.3;;;4.9;65.7
57799;BME280;43626;53.866;30.298;2023-03-31T19:31:20;1008.3;;;4.8;66
57799;BME280;43626;53.866;30.298;2023-03-31T19:36:38;1008.3;;;4.7;66.4
57799;BME280;43626;53.866;30.298;2023-03-31T19:41:22;1008.2;;;4.7;66.7
57799;BME280;43626;53.866;30.298;2023-03-31T19:45:58;1008.1;;;4.6;66.9
57799;BME280;43626;53.866;30.298;2023-03-31T19:51:30;1008;;;4.6;67.1
57799;BME280;43626;53.866;30.298;2023-03-31T19:56:22;1007.9;;;4.7;66.7
57799;BME280;43626;53.866;30.298;2023-03-31T20:01:36;1008;;;4.7;66.7
57799;BME280;43626;53.866;30.298;2023-03-31T20:06:13;1007.9;;;4.8;66.6
57799;BME280;43626;53.866;30.298;2023-03-31T20:10:58;1007.9;;;4.8;66.5
57799;BME280;43626;53.866;30.298;2023-03-31T20:16:32;1007.8;;;4.8;66.5
57799;BME280;43626;53.866;30.298;2023-03-31T20:21:15;1007.8;;;4.8;66.9
57799;BME280;43626;53.866;30.298;2023-03-31T20:26:40;1007.8;;;4.8;67.2
57799;BME280;43626;53.866;30.298;2023-03-31T20:31:09;1007.7;;;4.9;66.9
57799;BME280;43626;53.866;30.298;2023-03-31T20:35:59;1007.7;;;4.9;67
57799;BME280;43626;53.866;30.298;2023-03-31T20:41:31;1007.7;;;4.9;66.8
57799;BME280;43626;53.866;30.298;2023-03-31T20:46:08;1007.7;;;4.9;66.7
57799;BME280;43626;53.866;30.298;2023-03-31T20:51:38;1007.7;;;5;66.8
57799;BME280;43626;53.866;30.298;2023-03-31T20:56:17;1007.7;;;5;66.7
57799;BME280;43626;53.866;30.298;2023-03-31T21:01:06;1007.7;;;5;66.7
57799;BME280;43626;53.866;30.298;2023-03-31T21:06:35;1007.7;;;5;66.6
57799;BME280;43626;53.866;30.298;2023-03-31T21:11:22;1007.6;;;5;66.9
57799;BME280;43626;53.866;30.298;2023-03-31T21:16:38;1007.6;;;4.8;67.4
57799;BME280;43626;53.866;30.298;2023-03-31T21:21:25;1007.5;;;4.8;68.1
57799;BME280;43626;53.866;30.298;2023-03-31T21:25:59;1007.5;;;4.7;68.2
57799;BME280;43626;53.866;30.298;2023-03-31T21:31:32;1007.5;;;4.7;68.5
57799;BME280;43626;53.866;30.298;2023-03-31T21:36:09;1007.4;;;4.7;68.8
57799;BME280;43626;53.866;30.298;2023-03-31T21:41:42;1007.4;;;4.6;68.9
57799;BME280;43626;53.866;30.298;2023-03-31T21:46:25;1007.3;;;4.6;68.9
57799;BME280;43626;53.866;30.298;2023-03-31T21:51:08;1007.2;;;4.7;68.9
57799;BME280;43626;53.866;30.298;2023-03-31T21:56:32;1007.3;;;4.7;69
57799;BME280;43626;53.866;30.298;2023-03-31T22:00:59;1007.3;;;4.7;69.1
57799;BME280;43626;53.866;30.298;2023-03-31T22:06:42;1007.2;;;4.7;69
57799;BME280;43626;53.866;30.298;2023-03-31T22:11:24;1007.2;;;4.8;69.4
57799;BME280;43626;53.866;30.298;2023-03-31T22:15:58;1007.1;;;4.7;69.7
57799;BME280;43626;53.866;30.298;2023-03-31T22:21:32;1007.1;;;4.7;69.8
57799;BME280;43626;53.866;30.298;2023-03-31T22:26:12;1007.1;;;4.7;70
57799;BME280;43626;53.866;30.298;2023-03-31T22:31:40;1007.1;;;4.7;70
57799;BME280;43626;53.866;30.298;2023-03-31T22:36:24;1007;;;4.7;70
57799;BME280;43626;53.866;30.298;2023-03-31T22:41:14;1007;;;4.7;69.9
57799;BME280;43626;53.866;30.298;2023-03-31T22:46:30;1006.9;;;4.7;69.8
57799;BME280;43626;53.866;30.298;2023-03-31T22:51:00;1006.8;;;4.8;69.8
57799;BME280;43626;53.866;30.298;2023-03-31T22:56:38;1006.8;;;4.8;69.8
57799;BME280;43626;53.866;30.298;2023-03-31T23:01:24;1006.8;;;4.8;69.8
57799;BME280;43626;53.866;30.298;2023-03-31T23:06:13;1006.7;;;4.7;70.1
57799;BME280;43626;53.866;30.298;2023-03-31T23:11:32;1006.7;;;4.8;70.2
57799;BME280;43626;53.866;30.298;2023-03-31T23:16:01;1006.8;;;4.8;70.3
57799;BME280;43626;53.866;30.298;2023-03-31T23:21:40;1006.7;;;4.9;70.5
57799;BME280;43626;53.866;30.298;2023-03-31T23:26:25;1006.8;;;4.9;70
57799;BME280;43626;53.866;30.298;2023-03-31T23:30:58;1006.8;;;4.8;70.2
57799;BME280;43626;53.866;30.298;2023-03-31T23:36:34;1006.7;;;4.8;70
57799;BME280;43626;53.866;30.298;2023-03-31T23:41:08;1006.7;;;4.8;70
57799;BME280;43626;53.866;30.298;2023-03-31T23:46:40;1006.7;;;4.8;70.1
57799;BME280;43626;53.866;30.298;2023-03-31T23:51:22;1006.7;;;4.8;70.1
57799;BME280;43626;53.866;30.298;2023-03-31T23:55:59;1006.7;;;4.8;70.2
